Time;durP1;ratioP1;P1;durP2;ratioP2;P2;SDS_P1;SDS_P2;PMS_P1;PMS_P2;Temp;Humidity;BMP_temperature;BMP_pressure;BME280_temperature;BME280_humidity;BME280_pressure;Samples;Min_cycle;Max_cycle;Signal;HPM_P1;HPM_P2
2023/06/24 00:02:17;;;;;;;15.07;11.98;;;;;;;28.51;46.27;98663.22;5000892;28;20057;-66
2023/06/24 00:04:47;;;;;;;18.90;12.05;;;;;;;28.46;46.46;98665.97;5000863;28;20049;-65
2023/06/24 00:07:13;;;;;;;16.38;11.90;;;;;;;28.38;46.22;98669.41;5017335;28;20052;-65
2023/06/24 00:09:40;;;;;;;15.20;10.88;;;;;;;28.49;45.81;98670.91;5033269;28;20041;-66
2023/06/24 00:12:07;;;;;;;15.00;11.48;;;;;;;28.38;46.10;98672.16;5000288;28;20582;-66
2023/06/24 00:14:32;;;;;;;16.70;12.32;;;;;;;28.40;45.70;98674.59;5000420;28;20174;-67
2023/06/24 00:17:00;;;;;;;14.43;11.90;;;;;;;28.53;46.01;98676.56;5034099;28;20053;-66
2023/06/24 00:19:26;;;;;;;19.30;11.88;;;;;;;28.20;46.34;98669.41;5034067;28;20048;-65
2023/06/24 00:21:53;;;;;;;15.27;11.80;;;;;;;28.35;45.58;98672.75;5025490;28;20033;-65
2023/06/24 00:24:25;;;;;;;15.13;11.57;;;;;;;28.25;46.58;98661.94;5025307;28;20068;-65
2023/06/24 00:26:52;;;;;;;14.48;11.77;;;;;;;28.16;46.24;98668.38;5041691;28;20072;-65
2023/06/24 00:29:18;;;;;;;15.73;10.88;;;;;;;28.06;46.34;98663.06;5057230;28;20135;-65
2023/06/24 00:31:44;;;;;;;14.30;10.90;;;;;;;28.17;46.35;98662.59;5057394;28;20127;-65
2023/06/24 00:34:11;;;;;;;14.40;11.63;;;;;;;28.17;45.83;98664.56;5057200;28;20048;-65
2023/06/24 00:36:38;;;;;;;16.33;11.07;;;;;;;28.08;45.90;98664.38;5075995;28;20056;-65
2023/06/24 00:39:05;;;;;;;14.95;11.95;;;;;;;28.07;46.30;98656.50;5059710;28;20434;-67
2023/06/24 00:41:36;;;;;;;17.40;12.75;;;;;;;28.10;47.00;98658.63;4997277;28;20054;-66
2023/06/24 00:44:02;;;;;;;14.63;12.13;;;;;;;27.92;46.65;98660.25;4981319;28;20525;-66
2023/06/24 00:46:31;;;;;;;16.65;12.55;;;;;;;27.99;47.09;98652.50;5013075;28;20084;-66
2023/06/24 00:49:00;;;;;;;13.13;11.55;;;;;;;27.80;47.38;98651.66;5013151;28;20041;-66
2023/06/24 00:51:30;;;;;;;14.07;11.77;;;;;;;27.76;47.39;98654.16;4981164;28;20068;-65
2023/06/24 00:53:57;;;;;;;15.20;11.20;;;;;;;27.83;47.22;98648.34;4996992;28;20517;-65
2023/06/24 00:56:38;;;;;;;13.95;10.40;;;;;;;28.00;46.89;98641.28;4964964;28;20115;-65
2023/06/24 00:59:04;;;;;;;12.00;10.30;;;;;;;28.00;46.81;98649.47;4997390;28;20137;-66
2023/06/24 01:01:35;;;;;;;14.60;10.23;;;;;;;28.21;46.09;98651.91;4980604;28;20057;-65
2023/06/24 01:04:02;;;;;;;13.93;10.35;;;;;;;28.18;46.09;98663.44;4981194;28;20149;-67
2023/06/24 01:06:29;;;;;;;11.55;9.90;;;;;;;28.15;46.06;98648.47;5012590;28;20504;-66
2023/06/24 01:09:00;;;;;;;12.32;9.48;;;;;;;28.49;45.55;98645.50;4979943;28;20473;-66
2023/06/24 01:11:27;;;;;;;13.23;9.88;;;;;;;28.42;45.12;98645.84;5002140;28;20072;-65
2023/06/24 01:13:54;;;;;;;14.45;9.70;;;;;;;28.36;44.88;98648.94;5041026;28;20049;-65
2023/06/24 01:16:42;;;;;;;12.07;9.80;;;;;;;28.43;45.31;98650.19;5056612;28;20160;-65
2023/06/24 01:19:24;;;;;;;11.90;9.98;;;;;;;28.48;44.91;98652.06;5056269;28;20041;-66
2023/06/24 01:22:24;;;;;;;14.25;9.65;;;;;;;28.35;45.44;98647.34;5072669;28;20459;-65
2023/06/24 01:25:19;;;;;;;15.95;9.45;;;;;;;28.31;45.45;98638.13;5073154;28;20060;-67
2023/06/24 01:28:17;;;;;;;11.18;8.55;;;;;;;28.17;46.01;98648.97;5074585;28;20071;-66
2023/06/24 01:30:55;;;;;;;10.50;8.77;;;;;;;28.15;46.38;98653.09;5072623;28;20113;-65
2023/06/24 01:33:59;;;;;;;9.55;8.48;;;;;;;28.09;46.34;98646.91;5073156;28;20131;-66
2023/06/24 01:36:28;;;;;;;9.90;8.50;;;;;;;28.00;46.46;98665.03;4995853;28;20041;-65
2023/06/24 01:39:02;;;;;;;12.07;9.43;;;;;;;28.16;46.41;98658.25;4996046;28;20058;-65
2023/06/24 01:41:34;;;;;;;10.95;8.93;;;;;;;28.19;45.66;98663.13;4979978;28;20100;-65
2023/06/24 01:44:00;;;;;;;14.05;9.00;;;;;;;28.15;45.61;98656.66;5011979;28;20497;-66
2023/06/24 01:46:28;;;;;;;9.13;8.05;;;;;;;28.38;45.17;98660.41;5002730;28;20058;-65
2023/06/24 01:48:56;;;;;;;11.75;8.65;;;;;;;28.28;45.25;98655.91;5055697;28;20052;-66
2023/06/24 01:51:23;;;;;;;12.00;8.30;;;;;;;28.42;44.89;98651.31;5072582;28;20037;-66
2023/06/24 01:53:58;;;;;;;12.15;8.63;;;;;;;28.70;44.44;98647.59;5073314;28;20093;-65
2023/06/24 01:56:26;;;;;;;9.15;8.18;;;;;;;28.61;44.32;98651.31;5040059;28;20471;-65
2023/06/24 01:58:53;;;;;;;11.00;8.52;;;;;;;28.71;43.95;98648.41;5056432;28;20166;-66
2023/06/24 02:01:21;;;;;;;9.15;7.68;;;;;;;28.64;44.06;98637.88;5056336;28;20073;-66
2023/06/24 02:03:48;;;;;;;10.48;7.72;;;;;;;28.60;44.00;98646.97;5072357;28;20048;-66
2023/06/24 02:06:15;;;;;;;11.93;8.90;;;;;;;28.82;43.72;98661.59;5038486;28;20052;-66
2023/06/24 02:08:42;;;;;;;9.27;8.25;;;;;;;28.77;43.78;98656.22;5022390;28;20036;-66
2023/06/24 02:11:09;;;;;;;8.98;7.75;;;;;;;28.80;44.26;98663.81;5055671;28;20052;-66
2023/06/24 02:13:36;;;;;;;13.52;11.95;;;;;;;28.92;43.13;98655.94;5074538;28;20044;-65
2023/06/24 02:16:05;;;;;;;9.68;8.15;;;;;;;28.99;43.13;98656.38;5057720;28;20052;-66
2023/06/24 02:18:31;;;;;;;10.20;9.15;;;;;;;29.00;42.91;98652.53;5075573;28;20189;-65
2023/06/24 02:21:01;;;;;;;9.07;7.60;;;;;;;29.26;42.38;98658.38;5043018;28;20040;-66
2023/06/24 02:23:28;;;;;;;9.85;7.78;;;;;;;29.32;42.56;98668.13;5058509;28;20091;-66
2023/06/24 02:25:54;;;;;;;7.95;6.90;;;;;;;29.22;41.86;98669.13;5041634;28;20056;-66
2023/06/24 02:28:20;;;;;;;7.47;6.68;;;;;;;29.09;42.42;98663.63;5074797;28;20070;-66
2023/06/24 02:30:48;;;;;;;9.77;7.25;;;;;;;29.26;41.36;98667.38;5057648;28;20087;-66
2023/06/24 02:33:14;;;;;;;8.32;6.70;;;;;;;29.19;41.62;98656.03;5057834;28;20063;-66
2023/06/24 02:35:41;;;;;;;8.77;6.70;;;;;;;29.39;41.00;98665.78;5058114;28;20044;-66
2023/06/24 02:38:09;;;;;;;8.93;6.50;;;;;;;29.18;41.46;98661.81;5041398;28;20052;-65
2023/06/24 02:40:35;;;;;;;9.60;6.78;;;;;;;29.11;41.67;98670.41;5074147;28;20077;-66
2023/06/24 02:43:01;;;;;;;9.98;7.72;;;;;;;29.38;41.00;98667.69;5039752;28;20693;-66
2023/06/24 02:45:28;;;;;;;13.82;8.30;;;;;;;29.31;41.14;98671.94;5073839;28;20407;-66
2023/06/24 02:47:56;;;;;;;11.70;7.65;;;;;;;29.37;40.94;98677.03;5041249;28;20040;-65
2023/06/24 02:50:24;;;;;;;9.40;6.90;;;;;;;29.28;40.79;98669.81;5037399;28;20117;-65
2023/06/24 02:52:51;;;;;;;7.88;6.68;;;;;;;29.49;39.90;98673.81;5038258;28;20492;-65
2023/06/24 02:55:19;;;;;;;5.07;4.30;;;;;;;29.32;38.98;98668.91;5054222;28;20482;-65
2023/06/24 02:57:50;;;;;;;5.75;4.28;;;;;;;29.55;38.38;98689.00;5071471;28;20040;-65
2023/06/24 03:00:42;;;;;;;5.78;3.60;;;;;;;29.48;37.77;98692.13;5059096;28;20064;-67
2023/06/24 03:03:09;;;;;;;4.65;3.35;;;;;;;29.37;37.97;98687.97;5056809;28;20118;-65
2023/06/24 03:05:44;;;;;;;5.38;2.97;;;;;;;29.46;37.79;98677.94;5040977;28;20052;-65
2023/06/24 03:08:11;;;;;;;3.33;3.00;;;;;;;29.37;37.64;98673.47;5022570;28;20037;-65
2023/06/24 03:10:37;;;;;;;4.72;3.20;;;;;;;29.65;37.49;98682.53;5054606;28;20051;-65
2023/06/24 03:13:05;;;;;;;5.93;2.42;;;;;;;29.36;36.97;98678.16;5039798;28;20106;-66
2023/06/24 03:15:40;;;;;;;2.28;2.08;;;;;;;29.28;36.99;98678.84;5041125;28;20469;-66
2023/06/24 03:18:07;;;;;;;2.00;1.85;;;;;;;29.56;36.80;98676.94;5072296;28;20145;-65
2023/06/24 03:20:38;;;;;;;2.60;1.95;;;;;;;29.50;36.43;98706.34;5037102;28;20122;-65
2023/06/24 03:23:07;;;;;;;1.80;1.70;;;;;;;29.47;36.45;98696.00;5039374;28;20460;-65
2023/06/24 03:25:35;;;;;;;1.92;1.67;;;;;;;29.46;36.56;98696.31;5037935;28;20449;-65
2023/06/24 03:28:03;;;;;;;3.08;1.77;;;;;;;29.56;36.47;98696.09;5021571;28;20072;-65
2023/06/24 03:30:33;;;;;;;2.50;1.30;;;;;;;29.34;36.41;98691.31;5038225;28;20422;-66
2023/06/24 03:32:59;;;;;;;3.67;1.58;;;;;;;29.27;36.37;98690.09;5073438;28;20052;-65
2023/06/24 03:35:26;;;;;;;4.05;1.52;;;;;;;29.34;36.39;98694.03;5040592;28;20110;-65
2023/06/24 03:37:55;;;;;;;1.60;1.50;;;;;;;29.26;36.32;98681.06;5025075;28;20051;-65
2023/06/24 03:40:23;;;;;;;5.18;1.60;;;;;;;29.54;36.28;98685.44;5057019;28;20105;-65
2023/06/24 03:42:50;;;;;;;3.50;1.25;;;;;;;29.31;36.10;98696.56;5073075;28;20066;-65
2023/06/24 03:45:17;;;;;;;2.85;1.50;;;;;;;29.37;36.23;98690.72;5056699;28;20097;-65
2023/06/24 03:47:44;;;;;;;5.40;1.70;;;;;;;29.51;35.95;98694.25;5073084;28;20513;-68
2023/06/24 03:50:10;;;;;;;3.70;1.55;;;;;;;29.51;35.80;98699.75;5072172;28;20059;-66
2023/06/24 03:52:36;;;;;;;4.15;1.33;;;;;;;29.38;36.07;98675.13;5073057;28;20056;-65
2023/06/24 03:55:04;;;;;;;2.45;1.40;;;;;;;29.42;36.06;98676.94;5058850;28;20679;-65
2023/06/24 03:57:31;;;;;;;3.92;1.42;;;;;;;29.52;35.98;98693.13;5060336;28;20040;-65
2023/06/24 03:59:57;;;;;;;2.03;1.48;;;;;;;29.74;35.37;98702.63;5043459;28;20135;-65
2023/06/24 04:02:23;;;;;;;4.53;1.63;;;;;;;29.86;35.31;98703.69;5076493;28;20546;-65
2023/06/24 04:04:55;;;;;;;2.58;1.40;;;;;;;29.72;35.49;98697.44;5023962;28;20064;-65
2023/06/24 04:07:26;;;;;;;;;;;;;;;30.29;34.82;98701.44;5058992;28;20052;-64
2023/06/24 04:09:55;;;;;;;5.22;1.80;;;;;;;29.85;35.43;98690.31;5041771;28;19920;-65
2023/06/24 04:12:22;;;;;;;3.53;1.85;;;;;;;29.93;35.44;98704.13;5073990;28;20051;-65
2023/06/24 04:14:48;;;;;;;2.25;1.63;;;;;;;29.97;35.00;98699.63;5040762;28;20127;-65
2023/06/24 04:17:16;;;;;;;2.45;1.50;;;;;;;30.05;34.82;98696.19;5041370;28;20056;-65
2023/06/24 04:19:42;;;;;;;1.48;1.35;;;;;;;30.26;34.29;98707.56;5074455;28;20048;-65
2023/06/24 04:22:08;;;;;;;2.50;1.20;;;;;;;30.41;34.08;98704.47;5057909;28;20052;-65
2023/06/24 04:24:35;;;;;;;2.10;1.05;;;;;;;30.42;34.20;98703.31;5057699;28;20056;-65
2023/06/24 04:27:01;;;;;;;2.35;1.13;;;;;;;30.58;33.72;98710.91;5041151;28;20059;-65
2023/06/24 04:29:27;;;;;;;1.00;0.90;;;;;;;30.63;33.16;98709.97;5074909;28;20052;-64
2023/06/24 04:31:53;;;;;;;1.30;0.90;;;;;;;30.55;33.23;98708.75;5057351;28;20062;-65
2023/06/24 04:34:19;;;;;;;0.93;0.90;;;;;;;30.45;33.50;98714.50;5040287;28;20475;-66
2023/06/24 04:36:46;;;;;;;2.25;0.77;;;;;;;30.63;33.14;98718.19;5039928;28;20113;-64
2023/06/24 04:39:13;;;;;;;1.98;0.90;;;;;;;30.77;33.21;98729.94;5024067;28;20062;-65
2023/06/24 04:41:40;;;;;;;1.25;1.02;;;;;;;30.57;33.12;98725.72;5058244;28;20423;-65
2023/06/24 04:44:06;;;;;;;0.80;0.80;;;;;;;30.58;32.95;98726.53;5075032;28;20070;-65
2023/06/24 04:46:35;;;;;;;2.38;0.80;;;;;;;30.48;32.81;98729.50;5042165;28;20051;-65
2023/06/24 04:49:01;;;;;;;4.60;0.90;;;;;;;30.42;32.96;98728.00;5059170;28;20037;-65
2023/06/24 04:51:27;;;;;;;2.00;0.90;;;;;;;30.44;33.08;98714.81;5057740;28;20048;-65
2023/06/24 04:53:55;;;;;;;3.28;0.80;;;;;;;30.45;33.04;98727.38;5024927;28;20099;-64
2023/06/24 04:56:21;;;;;;;2.25;0.88;;;;;;;30.13;33.54;98731.06;5041126;28;20044;-65
2023/06/24 04:58:48;;;;;;;3.20;0.90;;;;;;;30.29;33.72;98745.28;5057622;28;20045;-65
2023/06/24 05:01:14;;;;;;;2.90;1.00;;;;;;;29.95;33.84;98723.81;5073767;28;20037;-65
2023/06/24 05:03:40;;;;;;;2.13;1.10;;;;;;;30.01;33.81;98729.97;5074491;28;20041;-65
2023/06/24 05:06:05;;;;;;;2.15;1.00;;;;;;;30.04;34.00;98737.56;5056029;28;20055;-65
2023/06/24 05:08:31;;;;;;;3.15;1.10;;;;;;;29.79;34.57;98743.56;5073130;28;20503;-64
2023/06/24 05:10:57;;;;;;;2.97;0.90;;;;;;;29.89;34.32;98740.63;5055916;28;20056;-65
2023/06/24 05:13:23;;;;;;;3.15;0.80;;;;;;;29.92;34.14;98742.75;5040042;28;20052;-65
2023/06/24 05:15:49;;;;;;;2.10;0.90;;;;;;;29.77;34.47;98749.34;5040270;28;20472;-65
2023/06/24 05:18:15;;;;;;;1.52;0.98;;;;;;;29.73;35.08;98744.78;5074050;28;20105;-65
2023/06/24 05:20:42;;;;;;;0.82;0.80;;;;;;;29.52;35.33;98741.59;5056512;28;20036;-65
2023/06/24 05:23:07;;;;;;;1.42;1.00;;;;;;;29.55;35.34;98741.78;5056372;28;20059;-65
2023/06/24 05:25:35;;;;;;;0.75;0.75;;;;;;;29.72;34.83;98737.69;5039281;28;20040;-65
2023/06/24 05:28:01;;;;;;;0.95;0.80;;;;;;;29.79;34.42;98738.91;5056203;28;20123;-65
2023/06/24 05:30:26;;;;;;;1.60;0.90;;;;;;;29.86;34.22;98736.56;5039147;28;20189;-64
2023/06/24 05:32:52;;;;;;;0.93;0.77;;;;;;;30.22;33.89;98744.88;5072654;28;20059;-67
2023/06/24 05:35:19;;;;;;;2.17;1.20;;;;;;;30.23;34.10;98730.09;5073796;28;20503;-65
2023/06/24 05:37:45;;;;;;;0.77;0.77;;;;;;;30.03;34.54;98738.69;5055651;28;20044;-65
2023/06/24 05:40:12;;;;;;;2.00;0.85;;;;;;;29.82;34.15;98721.88;5072378;28;20049;-65
2023/06/24 05:42:39;;;;;;;1.23;1.00;;;;;;;29.84;34.25;98738.81;5056115;28;20127;-65
2023/06/24 05:45:06;;;;;;;2.42;0.93;;;;;;;30.08;33.88;98749.53;5073499;28;20091;-65
2023/06/24 05:47:33;;;;;;;1.00;0.85;;;;;;;30.00;33.67;98740.09;5039364;28;20040;-65
2023/06/24 05:49:59;;;;;;;3.53;0.85;;;;;;;29.98;33.40;98738.81;5055582;28;20048;-64
2023/06/24 05:52:25;;;;;;;5.47;0.85;;;;;;;29.91;33.36;98749.38;5055396;28;20380;-66
2023/06/24 05:54:51;;;;;;;3.05;0.70;;;;;;;29.92;33.69;98745.50;5055696;28;20545;-66
2023/06/24 05:57:17;;;;;;;3.30;0.80;;;;;;;29.99;33.51;98743.16;5073403;28;20075;-66
2023/06/24 05:59:43;;;;;;;3.25;1.08;;;;;;;29.66;33.97;98747.94;5055616;28;20084;-64
2023/06/24 06:02:09;;;;;;;1.40;0.75;;;;;;;29.41;34.43;98760.13;5038952;28;20495;-65
2023/06/24 06:04:35;;;;;;;1.42;0.73;;;;;;;29.46;34.26;98760.03;5037408;28;20126;-66
2023/06/24 06:07:02;;;;;;;3.40;0.90;;;;;;;29.73;33.91;98758.47;5038010;28;20061;-65
2023/06/24 06:09:27;;;;;;;1.35;0.80;;;;;;;29.81;33.47;98765.97;5039259;28;20049;-65
2023/06/24 06:11:53;;;;;;;0.85;0.70;;;;;;;29.73;33.42;98753.00;5006335;28;20032;-67
2023/06/24 06:14:20;;;;;;;1.35;0.75;;;;;;;29.85;33.51;98764.25;5054734;28;20056;-65
2023/06/24 06:16:49;;;;;;;0.80;0.80;;;;;;;30.00;33.13;98758.47;5022324;28;20101;-65
2023/06/24 06:19:15;;;;;;;1.50;0.70;;;;;;;29.66;33.45;98760.81;5052955;28;20079;-65
2023/06/24 06:21:41;;;;;;;1.35;0.77;;;;;;;29.78;33.19;98758.38;5034349;28;20130;-65
2023/06/24 06:24:07;;;;;;;2.22;0.93;;;;;;;29.93;33.06;98741.63;5034947;28;20072;-65
2023/06/24 06:26:33;;;;;;;1.48;0.93;;;;;;;30.27;32.87;98769.44;5036165;28;20083;-65
2023/06/24 06:28:58;;;;;;;3.33;0.90;;;;;;;30.45;32.41;98768.47;5036915;28;20040;-65
2023/06/24 06:31:25;;;;;;;2.63;0.90;;;;;;;30.50;32.20;98765.63;5063948;28;20040;-65
2023/06/24 06:33:52;;;;;;;0.77;0.65;;;;;;;30.62;32.39;98772.19;5081782;28;20040;-64
2023/06/24 06:36:19;;;;;;;1.83;0.93;;;;;;;30.70;31.94;98768.72;5061458;28;20078;-67
2023/06/24 06:38:45;;;;;;;1.08;0.90;;;;;;;30.75;32.40;98765.88;5063817;28;20067;-65
2023/06/24 06:41:11;;;;;;;3.80;0.88;;;;;;;30.54;32.24;98775.66;5055396;28;20093;-65
2023/06/24 06:43:37;;;;;;;2.80;0.90;;;;;;;30.66;32.48;98772.41;5082061;28;20036;-65
2023/06/24 06:46:04;;;;;;;1.75;0.90;;;;;;;30.54;32.55;98761.97;5047660;28;20106;-65
2023/06/24 06:48:30;;;;;;;3.47;1.00;;;;;;;30.52;32.65;98772.41;5056496;28;20032;-65
2023/06/24 06:50:56;;;;;;;4.03;0.80;;;;;;;30.57;32.57;98772.31;5080583;28;20043;-65
2023/06/24 06:53:22;;;;;;;7.45;1.63;;;;;;;30.64;32.76;98755.44;5081255;28;20032;-64
2023/06/24 06:55:47;;;;;;;2.40;1.00;;;;;;;30.61;33.15;98767.03;5050509;28;20388;-65
2023/06/24 06:58:14;;;;;;;4.93;0.90;;;;;;;30.64;32.57;98772.72;5066158;28;20143;-66
2023/06/24 07:00:42;;;;;;;5.18;1.10;;;;;;;30.49;32.72;98772.25;5073886;28;20056;-65
2023/06/24 07:03:08;;;;;;;1.73;1.10;;;;;;;30.17;33.07;98764.16;5065325;28;20051;-65
2023/06/24 07:05:35;;;;;;;3.58;1.27;;;;;;;30.23;33.50;98774.72;5030033;28;20053;-64
2023/06/24 07:08:01;;;;;;;2.97;1.20;;;;;;;30.21;33.43;98776.16;5033522;28;20488;-64
2023/06/24 07:10:28;;;;;;;6.45;1.05;;;;;;;30.28;33.33;98771.03;5027884;28;20087;-65
2023/06/24 07:12:57;;;;;;;1.10;1.00;;;;;;;30.37;33.10;98772.75;5044348;28;20036;-64
2023/06/24 07:15:27;;;;;;;3.90;1.20;;;;;;;30.63;33.16;98762.84;5021398;28;20135;-64
2023/06/24 07:17:54;;;;;;;1.63;1.10;;;;;;;30.51;32.92;98776.28;5060070;28;20099;-64
2023/06/24 07:20:21;;;;;;;3.20;1.15;;;;;;;30.75;32.78;98765.09;5014274;28;20511;-64
2023/06/24 07:22:50;;;;;;;4.38;1.35;;;;;;;30.92;32.96;98770.72;5031004;28;20373;-65
2023/06/24 07:25:17;;;;;;;3.33;1.10;;;;;;;30.74;32.73;98768.91;5041610;28;20161;-65
2023/06/24 07:27:46;;;;;;;4.03;1.13;;;;;;;30.88;32.54;98775.19;5014960;28;20052;-65
2023/06/24 07:30:12;;;;;;;4.85;1.17;;;;;;;30.79;32.70;98785.28;5014312;28;20086;-64
2023/06/24 07:32:38;;;;;;;4.00;1.58;;;;;;;30.85;32.40;98779.38;5029068;28;20048;-65
2023/06/24 07:35:05;;;;;;;4.43;1.20;;;;;;;30.95;32.46;98775.56;4976864;28;20136;-65
2023/06/24 07:37:31;;;;;;;6.80;1.30;;;;;;;30.77;32.64;98773.78;5026516;28;20045;-65
2023/06/24 07:39:57;;;;;;;1.48;1.38;;;;;;;30.61;32.43;98786.22;5025297;28;20126;-67
2023/06/24 07:42:23;;;;;;;2.95;1.30;;;;;;;30.56;32.70;98783.59;5044337;28;20080;-64
2023/06/24 07:44:48;;;;;;;1.75;1.30;;;;;;;30.37;32.78;98778.25;5041933;28;20397;-65
2023/06/24 07:47:18;;;;;;;3.05;1.75;;;;;;;30.61;32.92;98778.00;5027536;28;20036;-64
2023/06/24 07:49:44;;;;;;;3.08;1.40;;;;;;;30.38;33.00;98788.09;5002382;28;20244;-64
2023/06/24 07:52:11;;;;;;;4.13;1.70;;;;;;;30.38;32.74;98788.09;5021586;28;20123;-65
2023/06/24 07:54:37;;;;;;;7.70;2.80;;;;;;;30.25;32.97;98793.56;4984631;28;20082;-65
2023/06/24 07:57:03;;;;;;;4.82;1.63;;;;;;;30.16;33.20;98790.72;4984494;28;20056;-65
2023/06/24 07:59:30;;;;;;;2.05;1.52;;;;;;;30.27;33.31;98802.31;5000674;28;20044;-65
2023/06/24 08:01:56;;;;;;;5.30;1.85;;;;;;;30.16;32.96;98809.06;4984594;28;20488;-65
2023/06/24 08:04:21;;;;;;;3.47;1.67;;;;;;;30.11;33.22;98814.66;4983994;28;20092;-64
2023/06/24 08:06:47;;;;;;;3.20;1.77;;;;;;;30.00;33.13;98792.13;5062420;28;20052;-67
2023/06/24 08:09:15;;;;;;;4.55;1.50;;;;;;;29.99;33.61;98817.91;5074944;28;20036;-66
2023/06/24 08:11:41;;;;;;;4.70;1.98;;;;;;;29.97;33.33;98808.38;5057588;28;20040;-65
2023/06/24 08:14:08;;;;;;;2.15;1.50;;;;;;;30.03;33.56;98812.66;5075104;28;20131;-66
2023/06/24 08:16:34;;;;;;;3.03;1.70;;;;;;;29.98;33.24;98815.47;5073998;28;20067;-65
2023/06/24 08:19:00;;;;;;;3.72;1.58;;;;;;;29.93;33.57;98816.38;5040661;28;20032;-68
2023/06/24 08:21:25;;;;;;;2.05;1.30;;;;;;;30.00;33.71;98824.22;5057628;28;20048;-68
2023/06/24 08:23:53;;;;;;;3.00;1.80;;;;;;;30.00;33.50;98807.78;5040773;28;20396;-68
2023/06/24 08:26:22;;;;;;;2.70;1.77;;;;;;;30.40;33.49;98821.47;5040243;28;20113;-68
2023/06/24 08:28:48;;;;;;;5.55;2.28;;;;;;;30.33;33.02;98815.59;5040312;28;20051;-66
2023/06/24 08:31:14;;;;;;;4.68;2.40;;;;;;;30.45;33.24;98815.88;5024031;28;20045;-65
2023/06/24 08:33:47;;;;;;;1.90;1.70;;;;;;;30.87;32.37;98829.25;5058588;28;20040;-65
2023/06/24 08:36:14;;;;;;;2.03;1.80;;;;;;;30.81;32.13;98835.97;5041868;28;20064;-65
2023/06/24 08:38:41;;;;;;;7.82;2.28;;;;;;;30.87;32.40;98837.47;5057254;28;20044;-65
2023/06/24 08:41:07;;;;;;;3.55;2.00;;;;;;;30.76;32.64;98835.25;5038932;28;20073;-64
2023/06/24 08:43:33;;;;;;;3.10;2.13;;;;;;;30.83;32.63;98833.69;5056966;28;20052;-65
2023/06/24 08:45:59;;;;;;;2.33;1.73;;;;;;;31.09;32.17;98839.44;5057190;28;20411;-64
2023/06/24 08:48:27;;;;;;;6.13;2.80;;;;;;;31.15;31.82;98835.44;5074745;28;20059;-65
2023/06/24 08:50:56;;;;;;;3.35;2.42;;;;;;;31.00;32.16;98838.53;5073291;28;20040;-65
2023/06/24 08:53:22;;;;;;;7.45;2.88;;;;;;;30.95;32.15;98842.19;5056583;28;20065;-64
2023/06/24 08:55:49;;;;;;;4.90;2.13;;;;;;;31.10;32.36;98836.38;5082129;28;20056;-64
2023/06/24 08:58:15;;;;;;;4.90;2.13;;;;;;;31.01;32.02;98840.16;5044878;28;20037;-65
2023/06/24 09:00:42;;;;;;;3.67;1.80;;;;;;;31.08;32.43;98840.53;5073266;28;20396;-64
2023/06/24 09:03:08;;;;;;;4.50;2.00;;;;;;;31.08;32.20;98841.34;5058857;28;20131;-65
2023/06/24 09:05:35;;;;;;;5.40;2.20;;;;;;;31.08;31.95;98837.78;5063840;28;20142;-65
2023/06/24 09:08:01;;;;;;;3.58;2.00;;;;;;;31.06;32.21;98848.28;5053578;28;20120;-67
2023/06/24 09:10:33;;;;;;;3.72;2.03;;;;;;;31.33;31.76;98841.88;5069735;28;20055;-66
2023/06/24 09:13:06;;;;;;;4.10;1.92;;;;;;;31.36;31.89;98860.47;5069568;28;20037;-66
2023/06/24 09:15:36;;;;;;;6.90;2.08;;;;;;;31.18;32.04;98851.28;5070220;28;20051;-69
2023/06/24 09:18:03;;;;;;;2.67;2.17;;;;;;;31.12;31.86;98850.56;5035671;28;20552;-66
2023/06/24 09:20:31;;;;;;;5.50;1.88;;;;;;;31.01;32.46;98845.66;5056664;28;20403;-66
2023/06/24 09:23:01;;;;;;;9.85;2.30;;;;;;;30.95;32.81;98855.91;5074422;28;20135;-65
2023/06/24 09:25:28;;;;;;;2.63;1.90;;;;;;;30.92;32.79;98855.75;5058908;28;20129;-65
2023/06/24 09:27:55;;;;;;;5.15;1.73;;;;;;;31.01;32.34;98865.63;5040430;28;20043;-65
2023/06/24 09:30:23;;;;;;;3.97;1.83;;;;;;;31.06;32.19;98832.63;5023504;28;20372;-65
2023/06/24 09:32:50;;;;;;;2.63;1.90;;;;;;;31.35;31.84;98869.84;5072666;28;20040;-65
2023/06/24 09:35:21;;;;;;;4.82;2.17;;;;;;;31.56;31.55;98869.03;5055800;28;20392;-66
2023/06/24 09:37:56;;;;;;;5.57;1.98;;;;;;;31.62;31.76;98867.75;5039424;28;20139;-66
2023/06/24 09:40:23;;;;;;;5.65;3.05;;;;;;;31.40;31.75;98865.03;5073332;28;20053;-65
2023/06/24 09:42:52;;;;;;;5.45;3.78;;;;;;;31.31;31.96;98880.63;5072356;28;20062;-65
2023/06/24 09:45:29;;;;;;;6.85;2.35;;;;;;;31.50;31.95;98874.94;5072039;28;20040;-66
2023/06/24 09:47:57;;;;;;;7.57;3.03;;;;;;;31.13;32.72;98887.06;5055445;28;20072;-65
2023/06/24 09:50:24;;;;;;;5.32;2.30;;;;;;;31.10;32.63;98888.50;5030472;28;20621;-65
2023/06/24 09:52:52;;;;;;;4.85;2.60;;;;;;;31.24;32.43;98898.59;4965422;28;20189;-69
2023/06/24 09:55:19;;;;;;;7.97;3.10;;;;;;;31.11;32.39;98892.84;4998182;28;20056;-66
2023/06/24 09:57:49;;;;;;;10.73;3.30;;;;;;;31.29;32.18;98899.34;4998016;28;20041;-66
2023/06/24 10:00:18;;;;;;;7.28;2.70;;;;;;;31.03;32.58;98890.00;5014719;28;20053;-66
2023/06/24 10:02:45;;;;;;;9.63;2.75;;;;;;;30.92;33.04;98903.16;5014527;28;20042;-65
2023/06/24 10:05:13;;;;;;;8.63;3.50;;;;;;;30.83;33.17;98905.00;4981838;28;20136;-69
2023/06/24 10:07:41;;;;;;;7.22;2.80;;;;;;;30.79;33.23;98901.25;4998823;28;20048;-66
2023/06/24 10:10:09;;;;;;;6.95;3.20;;;;;;;30.64;33.65;98906.22;4998687;28;20064;-67
2023/06/24 10:12:36;;;;;;;5.65;2.80;;;;;;;30.41;33.54;98901.75;4998910;28;20505;-73
2023/06/24 10:15:04;;;;;;;5.30;3.28;;;;;;;30.46;33.90;98913.41;4998880;28;20543;-66
2023/06/24 10:17:35;;;;;;;5.43;3.33;;;;;;;30.20;33.97;98912.28;4983637;28;20136;-72
2023/06/24 10:20:06;;;;;;;6.30;2.85;;;;;;;30.36;33.90;98916.38;5014300;28;20135;-65
2023/06/24 10:22:32;;;;;;;6.43;3.22;;;;;;;30.12;34.24;98913.00;5016334;28;20087;-65
2023/06/24 10:25:00;;;;;;;14.00;3.20;;;;;;;30.19;34.34;98912.56;5032293;28;20490;-67
2023/06/24 10:27:27;;;;;;;6.25;2.78;;;;;;;29.93;34.58;98920.44;5032589;28;20083;-66
2023/06/24 10:29:57;;;;;;;10.02;3.10;;;;;;;29.97;34.91;98924.19;5032127;28;20119;-65
2023/06/24 10:32:23;;;;;;;10.48;3.05;;;;;;;29.94;35.11;98924.00;5001028;28;20404;-65
2023/06/24 10:34:56;;;;;;;6.70;3.08;;;;;;;30.07;34.85;98918.56;5017385;28;20045;-65
2023/06/24 10:37:32;;;;;;;6.95;2.92;;;;;;;29.91;35.09;98910.91;5017659;28;20060;-66
2023/06/24 10:40:00;;;;;;;17.33;3.03;;;;;;;29.60;35.90;98933.28;5034106;28;20492;-65
2023/06/24 10:42:27;;;;;;;9.07;3.80;;;;;;;29.67;35.49;98932.13;5033736;28;20513;-66
2023/06/24 10:44:57;;;;;;;6.32;2.92;;;;;;;29.82;35.48;98932.69;5017482;28;20393;-65
2023/06/24 10:47:25;;;;;;;4.85;3.42;;;;;;;29.92;35.15;98927.03;5001125;28;20071;-65
2023/06/24 10:49:51;;;;;;;4.45;3.10;;;;;;;30.02;35.05;98934.25;5017458;28;20049;-65
2023/06/24 10:52:21;;;;;;;5.18;3.50;;;;;;;30.21;35.10;98943.25;5033473;28;20049;-65
2023/06/24 10:54:48;;;;;;;5.65;3.33;;;;;;;30.06;34.63;98938.03;5054987;28;20459;-66
2023/06/24 10:57:14;;;;;;;7.47;3.25;;;;;;;30.08;34.71;98944.81;5038507;28;20423;-65
2023/06/24 10:59:51;;;;;;;4.15;2.63;;;;;;;30.11;34.33;98948.88;5038323;28;20070;-65
2023/06/24 11:02:26;;;;;;;3.85;2.70;;;;;;;30.17;34.53;98942.22;5022653;28;20080;-68
2023/06/24 11:05:02;;;;;;;4.53;2.83;;;;;;;30.26;34.73;98952.19;5038243;28;20056;-65
2023/06/24 11:07:34;;;;;;;4.57;3.25;;;;;;;30.01;35.12;98951.81;5054920;28;20107;-65
2023/06/24 11:10:16;;;;;;;3.13;2.80;;;;;;;30.19;34.84;98961.88;5037747;28;20044;-65
2023/06/24 11:12:43;;;;;;;6.90;3.72;;;;;;;29.84;35.23;98955.09;5037983;28;20072;-65
2023/06/24 11:15:13;;;;;;;4.13;3.20;;;;;;;29.90;35.13;98970.34;5046387;28;20056;-69
2023/06/24 11:17:40;;;;;;;4.50;3.13;;;;;;;29.73;35.51;98972.81;5030224;28;20060;-68
2023/06/24 11:20:13;;;;;;;4.00;3.17;;;;;;;29.82;35.65;98981.13;5047519;28;20052;-65
2023/06/24 11:22:40;;;;;;;4.55;3.20;;;;;;;29.58;35.58;98976.56;5031702;28;20104;-70
2023/06/24 11:25:06;;;;;;;7.18;3.33;;;;;;;29.55;35.54;98971.69;4983333;28;20115;-65
2023/06/24 11:27:32;;;;;;;6.20;3.40;;;;;;;29.57;35.62;98977.66;5013666;28;20571;-65
2023/06/24 11:30:02;;;;;;;3.42;3.13;;;;;;;29.75;35.46;98972.50;5046389;28;20092;-65
2023/06/24 11:32:37;;;;;;;7.20;3.67;;;;;;;29.86;35.24;98976.72;5012942;28;20085;-65
2023/06/24 11:35:07;;;;;;;4.75;3.53;;;;;;;29.81;35.21;98971.31;4997511;28;20531;-65
2023/06/24 11:37:36;;;;;;;4.70;3.53;;;;;;;29.65;35.53;98970.75;5031441;28;20045;-65